createdAt,value
2019-01-08T00:00:07.352Z,57.90
2019-01-08T00:02:36.496Z,58.00
2019-01-08T00:05:05.564Z,58.00
2019-01-08T00:07:34.605Z,58.00
2019-01-08T00:10:03.617Z,57.90
2019-01-08T00:12:32.677Z,57.90
2019-01-08T00:15:01.731Z,58.10
2019-01-08T00:17:30.687Z,58.00
2019-01-08T00:19:59.675Z,58.10
2019-01-08T00:22:28.743Z,58.10
2019-01-08T00:24:57.729Z,58.10
2019-01-08T00:27:26.793Z,58.20
2019-01-08T00:29:55.755Z,58.20
2019-01-08T00:32:24.745Z,58.20
2019-01-08T00:34:53.792Z,58.30
2019-01-08T00:37:22.858Z,58.30
2019-01-08T00:39:51.906Z,58.30
2019-01-08T00:42:20.902Z,58.40
2019-01-08T00:44:49.871Z,58.40
2019-01-08T00:47:18.912Z,58.40
2019-01-08T00:49:47.968Z,58.50
2019-01-08T00:52:17.008Z,58.50
2019-01-08T00:54:46.039Z,58.50
2019-01-08T00:57:15.053Z,58.50
2019-01-08T00:59:44.098Z,58.70
2019-01-08T01:02:13.070Z,58.60
2019-01-08T01:04:42.173Z,58.60
2019-01-08T01:07:11.214Z,58.60
2019-01-08T01:09:40.336Z,58.60
2019-01-08T01:12:09.401Z,58.70
2019-01-08T01:14:38.468Z,58.70
2019-01-08T01:17:07.536Z,58.70
2019-01-08T01:19:36.600Z,58.70
2019-01-08T01:22:05.643Z,58.80
2019-01-08T01:24:34.685Z,58.70
2019-01-08T01:27:03.661Z,58.80
2019-01-08T01:29:32.709Z,58.80
2019-01-08T01:32:01.718Z,58.80
2019-01-08T01:34:30.752Z,58.90
2019-01-08T01:36:59.861Z,58.90
2019-01-08T01:39:28.988Z,58.90
2019-01-08T01:41:58.012Z,58.90
2019-01-08T01:44:27.003Z,58.90
2019-01-08T01:46:55.957Z,59.00
2019-01-08T01:49:24.980Z,59.00
2019-01-08T01:51:54.022Z,59.00
2019-01-08T01:54:23.001Z,59.10
2019-01-08T01:56:52.067Z,59.00
2019-01-08T01:59:21.134Z,59.10
2019-01-08T02:01:50.184Z,59.10
2019-01-08T02:04:19.227Z,59.10
2019-01-08T02:06:48.249Z,59.20
2019-01-08T02:09:17.258Z,59.20
2019-01-08T02:11:46.218Z,59.20
2019-01-08T02:14:15.282Z,59.20
2019-01-08T02:16:44.314Z,59.20
2019-01-08T02:19:13.278Z,59.30
2019-01-08T02:21:42.246Z,59.30
2019-01-08T02:24:11.290Z,59.30
2019-01-08T02:26:40.273Z,59.30
2019-01-08T02:29:16.345Z,59.30
2019-01-08T02:31:40.044Z,59.40
2019-01-08T02:34:09.091Z,59.40
2019-01-08T02:36:38.157Z,59.40
2019-01-08T02:39:07.779Z,59.40
2019-01-08T02:41:36.821Z,59.40
2019-01-08T02:44:05.931Z,59.40
2019-01-08T02:46:35.196Z,59.50
2019-01-08T02:49:04.263Z,59.50
2019-01-08T02:51:33.214Z,59.50
2019-01-08T02:54:02.210Z,59.50
2019-01-08T02:56:31.258Z,59.60
2019-01-08T02:59:00.247Z,59.60
2019-01-08T03:01:29.280Z,59.60
2019-01-08T03:03:58.321Z,59.70
2019-01-08T03:06:27.292Z,59.60
2019-01-08T03:08:56.327Z,59.60
2019-01-08T03:11:25.474Z,59.70
2019-01-08T03:13:54.513Z,59.70
2019-01-08T03:16:23.572Z,60.40
2019-01-08T03:18:52.592Z,59.70
2019-01-08T03:21:21.625Z,59.70
2019-01-08T03:23:50.678Z,59.70
2019-01-08T03:26:19.630Z,59.70
2019-01-08T03:28:48.599Z,59.80
2019-01-08T03:31:17.566Z,59.80
2019-01-08T03:33:46.626Z,59.80
2019-01-08T03:36:15.593Z,59.80
2019-01-08T03:38:44.661Z,59.80
2019-01-08T03:41:13.741Z,59.80
2019-01-08T03:43:42.786Z,59.90
2019-01-08T03:46:11.829Z,59.90
2019-01-08T03:48:40.870Z,60.00
2019-01-08T03:51:09.918Z,60.00
2019-01-08T03:53:38.893Z,60.00
2019-01-08T03:56:07.942Z,60.00
2019-01-08T03:58:37.044Z,60.10
2019-01-08T04:01:06.082Z,60.00
2019-01-08T04:03:35.147Z,60.00
2019-01-08T04:06:04.215Z,60.00
2019-01-08T04:08:33.195Z,60.00
2019-01-08T04:11:02.199Z,60.00
2019-01-08T04:13:31.248Z,60.00
2019-01-08T04:16:00.409Z,60.10
2019-01-08T04:18:29.437Z,59.90
2019-01-08T04:20:58.455Z,60.00
2019-01-08T04:23:29.415Z,60.00
2019-01-08T04:25:58.153Z,60.00
2019-01-08T04:28:27.193Z,60.10
2019-01-08T04:30:56.270Z,60.00
2019-01-08T04:33:25.290Z,60.00
2019-01-08T04:35:54.273Z,60.10
2019-01-08T04:38:23.294Z,60.00
2019-01-08T04:40:52.361Z,60.80
2019-01-08T04:43:21.444Z,60.10
2019-01-08T04:45:50.509Z,60.00
2019-01-08T04:48:19.575Z,60.10
2019-01-08T04:50:48.525Z,60.00
2019-01-08T04:53:17.499Z,60.10
2019-01-08T04:55:46.561Z,60.10
2019-01-08T04:58:15.625Z,60.10
2019-01-08T05:01:05.435Z,60.10
2019-01-08T05:03:34.497Z,60.10
2019-01-08T05:06:03.522Z,60.10
2019-01-08T05:08:33.749Z,60.10
2019-01-08T05:11:02.813Z,60.10
2019-01-08T05:13:31.843Z,60.00
2019-01-08T05:16:00.906Z,60.10
2019-01-08T05:18:29.948Z,60.00
2019-01-08T05:20:59.011Z,60.00
2019-01-08T05:23:28.069Z,60.00
2019-01-08T05:25:57.119Z,60.00
2019-01-08T05:28:26.079Z,60.10
2019-01-08T05:30:55.995Z,60.00
2019-01-08T05:33:25.066Z,59.90
2019-01-08T05:35:54.205Z,60.00
2019-01-08T05:38:23.262Z,60.80
2019-01-08T05:40:52.236Z,59.90
2019-01-08T05:43:21.267Z,60.00
2019-01-08T05:45:50.268Z,60.20
2019-01-08T05:48:19.264Z,60.30
2019-01-08T05:50:58.494Z,60.30
2019-01-08T05:53:44.111Z,60.40
2019-01-08T05:56:13.120Z,60.40
2019-01-08T05:58:43.546Z,60.40
2019-01-08T06:01:12.592Z,60.40
2019-01-08T06:03:41.741Z,60.50
2019-01-08T06:06:10.777Z,60.50
2019-01-08T06:08:39.822Z,60.50
2019-01-08T06:11:08.782Z,60.70
2019-01-08T06:13:37.763Z,61.50
2019-01-08T06:16:06.764Z,60.60
2019-01-08T06:18:35.799Z,60.70
2019-01-08T06:21:04.862Z,60.60
2019-01-08T06:23:33.918Z,60.70
2019-01-08T06:26:02.872Z,60.70
2019-01-08T06:28:31.944Z,60.70
2019-01-08T06:31:01.009Z,60.70
2019-01-08T06:33:30.055Z,60.60
2019-01-08T06:35:59.094Z,60.70
2019-01-08T06:38:28.039Z,60.60
2019-01-08T06:40:57.752Z,60.60
2019-01-08T06:43:34.786Z,60.60
2019-01-08T06:46:03.851Z,60.60
2019-01-08T06:48:32.897Z,60.60
2019-01-08T06:51:01.972Z,60.50
2019-01-08T06:53:31.022Z,60.50
2019-01-08T06:56:00.172Z,60.60
2019-01-08T06:58:29.214Z,60.50
2019-01-08T07:00:58.262Z,60.50
2019-01-08T07:03:27.261Z,60.50
2019-01-08T07:05:56.232Z,60.50
2019-01-08T07:08:25.260Z,60.50
2019-01-08T07:10:54.270Z,60.50
2019-01-08T07:13:23.263Z,60.50
2019-01-08T07:15:52.164Z,60.50
2019-01-08T07:18:21.151Z,60.40
2019-01-08T07:20:50.166Z,60.40
2019-01-08T07:23:19.118Z,60.40
2019-01-08T07:25:48.129Z,60.40
2019-01-08T07:28:17.160Z,60.40
2019-01-08T07:30:46.231Z,60.40
2019-01-08T07:33:15.262Z,60.40
2019-01-08T07:35:44.244Z,60.30
2019-01-08T07:38:13.261Z,60.40
2019-01-08T07:40:42.259Z,60.40
2019-01-08T07:43:11.315Z,60.40
2019-01-08T07:45:40.351Z,60.40
2019-01-08T07:48:09.404Z,60.40
2019-01-08T07:50:38.470Z,60.40
2019-01-08T07:53:07.533Z,60.30
2019-01-08T07:55:36.566Z,60.30
2019-01-08T07:58:05.641Z,60.40
2019-01-08T08:00:34.755Z,60.30
2019-01-08T08:03:03.857Z,60.30
2019-01-08T08:05:32.811Z,60.30
2019-01-08T08:08:01.869Z,60.30
2019-01-08T08:10:30.898Z,60.30
2019-01-08T08:12:59.885Z,60.20
2019-01-08T08:15:29.025Z,60.20
2019-01-08T08:17:58.015Z,60.20
2019-01-08T08:20:27.015Z,60.20
2019-01-08T08:22:56.062Z,60.20
2019-01-08T08:25:25.116Z,60.20
2019-01-08T08:27:54.201Z,60.10
2019-01-08T08:30:23.247Z,60.10
2019-01-08T08:32:52.326Z,60.10
2019-01-08T08:35:21.369Z,60.10
2019-01-08T08:37:50.414Z,60.10
2019-01-08T08:40:19.464Z,60.10
2019-01-08T08:42:48.523Z,60.10
2019-01-08T08:45:17.559Z,60.10
2019-01-08T08:47:47.549Z,60.00
2019-01-08T08:50:16.579Z,60.10
2019-01-08T08:52:45.586Z,60.10
2019-01-08T08:55:14.653Z,60.10
2019-01-08T08:57:43.679Z,60.00
2019-01-08T09:00:12.724Z,60.00
2019-01-08T09:02:41.796Z,60.00
2019-01-08T09:05:10.796Z,60.10
2019-01-08T09:07:39.827Z,60.40
2019-01-08T09:10:08.885Z,60.00
2019-01-08T09:12:37.926Z,59.90
2019-01-08T09:15:06.989Z,60.00
2019-01-08T09:17:35.998Z,59.90
2019-01-08T09:20:05.588Z,59.90
2019-01-08T09:22:34.725Z,59.90
2019-01-08T09:25:03.846Z,59.90
2019-01-08T09:27:32.808Z,59.90
2019-01-08T09:30:01.873Z,59.80
2019-01-08T09:32:30.914Z,59.80
2019-01-08T09:34:59.895Z,59.90
2019-01-08T09:37:28.951Z,59.80
2019-01-08T09:39:57.950Z,59.80
2019-01-08T09:42:26.920Z,59.80
2019-01-08T09:44:56.038Z,59.70
2019-01-08T09:47:25.013Z,59.80
2019-01-08T09:49:54.061Z,59.80
2019-01-08T09:52:23.125Z,59.70
2019-01-08T09:54:52.119Z,59.80
2019-01-08T09:57:21.130Z,59.80
2019-01-08T09:59:50.046Z,59.70
2019-01-08T10:02:19.065Z,59.70
2019-01-08T10:04:48.090Z,59.80
2019-01-08T10:07:17.118Z,59.70
2019-01-08T10:09:46.108Z,59.70
2019-01-08T10:12:15.082Z,59.60
2019-01-08T10:14:44.126Z,59.60
2019-01-08T10:17:13.166Z,59.70
2019-01-08T10:19:42.226Z,59.60
2019-01-08T10:22:11.250Z,59.70
2019-01-08T10:24:40.236Z,59.60
2019-01-08T10:27:09.274Z,59.60
2019-01-08T10:29:38.302Z,59.40
2019-01-08T10:32:07.238Z,59.30
2019-01-08T10:34:36.237Z,58.90
2019-01-08T10:37:05.286Z,58.70
2019-01-08T10:39:34.266Z,58.70
2019-01-08T10:42:03.330Z,58.90
2019-01-08T10:44:32.330Z,58.90
2019-01-08T10:47:01.334Z,59.00
2019-01-08T10:49:30.397Z,58.70
2019-01-08T10:51:59.469Z,58.30
2019-01-08T10:54:28.498Z,58.30
2019-01-08T10:56:57.558Z,58.10
2019-01-08T10:59:26.598Z,58.20
2019-01-08T11:01:55.630Z,58.20
2019-01-08T11:04:24.675Z,58.30
2019-01-08T11:06:53.747Z,58.30
2019-01-08T11:09:22.799Z,58.40
2019-01-08T11:11:51.843Z,58.30
2019-01-08T11:14:20.899Z,58.30
2019-01-08T11:16:50.644Z,58.30
2019-01-08T11:19:19.739Z,58.30
2019-01-08T11:21:48.778Z,58.40
2019-01-08T11:24:17.751Z,58.30
2019-01-08T11:26:48.050Z,58.30
2019-01-08T11:29:17.094Z,58.40
2019-01-08T11:31:48.981Z,59.10
2019-01-08T11:34:16.842Z,58.50
2019-01-08T11:36:45.876Z,58.60
2019-01-08T11:39:14.934Z,58.60
2019-01-08T11:41:43.997Z,58.60
2019-01-08T11:44:13.012Z,58.50
2019-01-08T11:46:42.094Z,58.50
2019-01-08T11:49:11.053Z,58.50
2019-01-08T11:51:40.097Z,58.40
2019-01-08T11:54:09.027Z,58.50
2019-01-08T11:56:38.014Z,58.50
2019-01-08T11:59:07.037Z,58.50
2019-01-08T12:01:36.114Z,58.60
2019-01-08T12:04:05.183Z,58.60
2019-01-08T12:06:34.224Z,58.60
2019-01-08T12:09:04.188Z,58.60
2019-01-08T12:11:33.218Z,58.70
2019-01-08T12:14:02.262Z,58.70
2019-01-08T12:16:31.322Z,58.70
2019-01-08T12:19:00.350Z,58.70
2019-01-08T12:21:29.356Z,58.80
2019-01-08T12:23:58.425Z,58.70
2019-01-08T12:26:27.514Z,58.80
2019-01-08T12:28:56.520Z,58.80
2019-01-08T12:31:25.522Z,58.80
2019-01-08T12:33:54.556Z,58.80
2019-01-08T12:36:23.618Z,58.80
2019-01-08T12:38:52.824Z,58.80
2019-01-08T12:41:21.866Z,58.80
2019-01-08T12:43:50.952Z,58.80
2019-01-08T12:46:19.982Z,58.80
2019-01-08T12:48:48.993Z,58.80
2019-01-08T12:51:18.130Z,58.80
2019-01-08T12:53:47.177Z,58.80
2019-01-08T12:56:18.950Z,58.80
2019-01-08T12:58:48.000Z,58.80
2019-01-08T13:01:17.046Z,58.80
2019-01-08T13:03:46.089Z,58.80
2019-01-08T13:06:15.229Z,58.80
2019-01-08T13:08:44.265Z,58.90
2019-01-08T13:11:13.330Z,58.80
2019-01-08T13:13:42.296Z,58.80
2019-01-08T13:16:11.351Z,58.80
2019-01-08T13:18:40.397Z,58.80
2019-01-08T13:21:09.457Z,58.80
2019-01-08T13:23:38.501Z,58.80
2019-01-08T13:26:07.572Z,58.80
2019-01-08T13:28:36.608Z,58.80
2019-01-08T13:31:05.664Z,58.80
2019-01-08T13:33:34.749Z,58.80
2019-01-08T13:36:03.769Z,58.80
2019-01-08T13:38:32.821Z,58.90
2019-01-08T13:41:01.824Z,58.90
2019-01-08T13:43:30.845Z,58.90
2019-01-08T13:45:59.887Z,58.80
2019-01-08T13:48:29.013Z,58.80
2019-01-08T13:50:58.047Z,58.80
2019-01-08T13:53:27.078Z,58.80
2019-01-08T13:55:56.072Z,58.70
2019-01-08T13:58:25.125Z,58.80
2019-01-08T14:00:54.166Z,58.70
2019-01-08T14:03:23.296Z,58.70
2019-01-08T14:05:52.361Z,58.70
2019-01-08T14:08:21.383Z,58.80
2019-01-08T14:10:56.444Z,58.70
2019-01-08T14:13:21.054Z,58.70
2019-01-08T14:15:50.120Z,58.70
2019-01-08T14:18:19.159Z,58.70
2019-01-08T14:20:48.187Z,58.80
2019-01-08T14:23:17.203Z,58.80
2019-01-08T14:25:46.166Z,58.90
2019-01-08T14:28:15.175Z,58.80
2019-01-08T14:30:44.173Z,58.80
2019-01-08T14:33:13.224Z,58.80
2019-01-08T14:35:42.224Z,58.80
2019-01-08T14:38:11.253Z,58.80
2019-01-08T14:40:40.285Z,58.80
2019-01-08T14:43:13.923Z,58.80
2019-01-08T14:45:40.038Z,58.80
2019-01-08T14:48:09.089Z,58.80
2019-01-08T14:50:38.133Z,58.80
2019-01-08T14:53:07.182Z,58.90
2019-01-08T14:55:36.215Z,58.90
2019-01-08T14:58:05.247Z,58.90
2019-01-08T15:00:34.238Z,58.90
2019-01-08T15:03:03.294Z,58.90
2019-01-08T15:05:32.353Z,59.00
2019-01-08T15:08:01.430Z,58.90
2019-01-08T15:10:30.472Z,59.00
2019-01-08T15:12:59.542Z,59.10
2019-01-08T15:15:28.585Z,59.00
2019-01-08T15:17:57.625Z,59.00
2019-01-08T15:20:26.697Z,59.00
2019-01-08T15:22:55.755Z,59.10
2019-01-08T15:25:24.774Z,59.60
2019-01-08T15:27:53.766Z,59.10
2019-01-08T15:30:22.866Z,59.10
2019-01-08T15:32:58.229Z,59.20
2019-01-08T15:35:22.558Z,59.20
2019-01-08T15:37:51.610Z,59.20
2019-01-08T15:40:20.665Z,59.20
2019-01-08T15:42:49.737Z,59.20
2019-01-08T15:45:18.843Z,59.20
2019-01-08T15:47:47.834Z,59.20
2019-01-08T15:50:16.853Z,59.20
2019-01-08T15:52:45.876Z,59.20
2019-01-08T15:55:14.905Z,59.20
2019-01-08T15:57:43.941Z,59.20
2019-01-08T16:00:12.994Z,59.20
2019-01-08T16:02:41.965Z,59.20
2019-01-08T16:05:11.026Z,59.20
2019-01-08T16:07:40.090Z,59.20
2019-01-08T16:10:09.174Z,59.20
2019-01-08T16:12:38.283Z,59.20
2019-01-08T16:15:07.466Z,59.20
2019-01-08T16:17:36.528Z,59.20
2019-01-08T16:20:05.896Z,59.20
2019-01-08T16:22:34.988Z,59.30
2019-01-08T16:25:04.040Z,59.30
2019-01-08T16:27:33.006Z,59.30
2019-01-08T16:30:02.001Z,59.30
2019-01-08T16:32:31.128Z,59.40
2019-01-08T16:35:00.274Z,59.40
2019-01-08T16:37:29.528Z,59.40
2019-01-08T16:39:58.679Z,59.30
2019-01-08T16:42:27.769Z,59.20
2019-01-08T16:44:56.912Z,59.10
2019-01-08T16:47:25.960Z,59.00
2019-01-08T16:49:55.038Z,58.80
2019-01-08T16:52:24.010Z,58.60
2019-01-08T16:54:53.024Z,58.40
2019-01-08T16:57:22.140Z,58.30
2019-01-08T16:59:51.190Z,58.10
2019-01-08T17:02:20.177Z,57.90
2019-01-08T17:04:49.282Z,57.70
2019-01-08T17:07:18.258Z,57.70
2019-01-08T17:09:47.233Z,57.50
2019-01-08T17:12:16.279Z,57.40
2019-01-08T17:14:45.294Z,57.30
2019-01-08T17:17:14.358Z,57.20
2019-01-08T17:19:43.494Z,57.00
2019-01-08T17:22:12.550Z,56.90
2019-01-08T17:24:41.484Z,56.80
2019-01-08T17:27:10.492Z,56.70
2019-01-08T17:29:39.598Z,56.60
2019-01-08T17:32:08.650Z,56.60
2019-01-08T17:34:37.780Z,56.50
2019-01-08T17:37:06.847Z,56.70
2019-01-08T17:39:35.992Z,56.90
2019-01-08T17:42:05.126Z,57.00
2019-01-08T17:44:34.225Z,57.20
2019-01-08T17:47:03.417Z,57.10
2019-01-08T17:49:32.450Z,57.10
2019-01-08T17:52:01.468Z,57.00
2019-01-08T17:54:30.481Z,57.10
2019-01-08T17:56:59.525Z,57.00
2019-01-08T17:59:28.724Z,57.40
2019-01-08T18:02:20.218Z,56.60
2019-01-08T18:04:49.208Z,56.50
2019-01-08T18:07:18.269Z,56.30
2019-01-08T18:09:47.348Z,56.20
2019-01-08T18:12:16.390Z,56.10
2019-01-08T18:14:45.845Z,55.90
2019-01-08T18:17:14.988Z,55.80
2019-01-08T18:19:44.093Z,55.60
2019-01-08T18:22:13.139Z,55.50
2019-01-08T18:24:42.205Z,55.40
2019-01-08T18:27:11.249Z,55.30
2019-01-08T18:29:40.265Z,55.90
2019-01-08T18:32:09.270Z,55.30
2019-01-08T18:34:38.298Z,55.20
2019-01-08T18:37:07.338Z,55.10
2019-01-08T18:39:36.392Z,55.00
2019-01-08T18:42:05.446Z,54.90
2019-01-08T18:44:34.503Z,54.80
2019-01-08T18:47:03.460Z,54.80
2019-01-08T18:49:32.602Z,54.70
2019-01-08T18:52:01.653Z,54.70
2019-01-08T18:54:30.698Z,54.60
2019-01-08T18:56:59.696Z,54.50
2019-01-08T18:59:28.762Z,54.50
2019-01-08T19:01:57.728Z,54.50
2019-01-08T19:04:26.781Z,54.40
2019-01-08T19:06:55.806Z,54.40
2019-01-08T19:09:35.629Z,54.40
2019-01-08T19:12:06.073Z,54.30
2019-01-08T19:14:38.233Z,54.30
2019-01-08T19:17:10.149Z,54.10
2019-01-08T19:19:39.130Z,54.00
2019-01-08T19:22:08.194Z,54.10
2019-01-08T19:24:37.174Z,53.80
2019-01-08T19:27:06.231Z,53.80
2019-01-08T19:29:35.317Z,53.90
2019-01-08T19:32:04.402Z,54.00
2019-01-08T19:34:33.658Z,54.00
2019-01-08T19:37:02.750Z,54.10
2019-01-08T19:39:31.877Z,54.10
2019-01-08T19:42:00.941Z,54.10
2019-01-08T19:44:30.033Z,54.10
2019-01-08T19:46:59.098Z,54.10
2019-01-08T19:49:28.294Z,54.10
2019-01-08T19:51:57.442Z,54.00
2019-01-08T19:54:26.511Z,54.00
2019-01-08T19:56:55.580Z,54.00
2019-01-08T19:59:24.673Z,54.00
2019-01-08T20:01:53.708Z,53.90
2019-01-08T20:04:22.746Z,53.90
2019-01-08T20:06:51.812Z,53.90
2019-01-08T20:09:25.561Z,53.90
2019-01-08T20:11:51.615Z,53.90
2019-01-08T20:14:21.796Z,53.80
2019-01-08T20:16:50.884Z,53.90
2019-01-08T20:19:20.038Z,53.80
2019-01-08T20:21:49.028Z,53.70
2019-01-08T20:24:18.106Z,53.80
2019-01-08T20:26:47.191Z,53.70
2019-01-08T20:29:16.263Z,53.70
2019-01-08T20:31:45.375Z,53.70
2019-01-08T20:34:14.503Z,53.60
2019-01-08T20:36:43.594Z,53.60
2019-01-08T20:39:15.518Z,53.60
2019-01-08T20:41:44.580Z,53.60
2019-01-08T20:44:13.623Z,53.50
2019-01-08T20:46:42.688Z,53.50
2019-01-08T20:49:11.821Z,53.50
2019-01-08T20:51:40.900Z,53.50
2019-01-08T20:54:09.961Z,53.40
2019-01-08T20:56:39.088Z,53.40
2019-01-08T20:59:08.157Z,53.40
2019-01-08T21:01:37.325Z,53.30
2019-01-08T21:04:06.486Z,53.30
2019-01-08T21:06:35.589Z,53.30
2019-01-08T21:09:06.509Z,53.30
2019-01-08T21:11:35.449Z,53.20
2019-01-08T21:14:04.486Z,53.10
2019-01-08T21:16:33.498Z,53.00
2019-01-08T21:19:02.510Z,53.10
2019-01-08T21:21:31.577Z,53.00
2019-01-08T21:24:00.680Z,53.00
2019-01-08T21:26:29.886Z,53.00
2019-01-08T21:28:58.909Z,52.90
2019-01-08T21:31:28.101Z,52.90
2019-01-08T21:33:57.149Z,52.90
2019-01-08T21:36:26.208Z,52.80
2019-01-08T21:38:55.833Z,52.80
2019-01-08T21:41:24.827Z,52.80
2019-01-08T21:43:53.900Z,52.70
2019-01-08T21:46:22.941Z,52.70
2019-01-08T21:48:52.048Z,52.60
2019-01-08T21:51:21.104Z,52.60
2019-01-08T21:53:50.134Z,52.60
2019-01-08T21:56:19.101Z,52.50
2019-01-08T21:58:48.140Z,52.50
2019-01-08T22:01:17.237Z,52.50
2019-01-08T22:03:46.323Z,52.60
2019-01-08T22:06:15.384Z,52.60
2019-01-08T22:08:44.414Z,52.50
2019-01-08T22:11:13.477Z,52.30
2019-01-08T22:13:42.518Z,52.20
2019-01-08T22:16:11.681Z,52.10
2019-01-08T22:18:40.730Z,52.00
2019-01-08T22:21:09.669Z,52.00
2019-01-08T22:23:38.688Z,51.90
2019-01-08T22:26:07.722Z,51.90
2019-01-08T22:28:47.884Z,51.90
2019-01-08T22:31:24.869Z,52.00
2019-01-08T22:33:53.830Z,52.00
2019-01-08T22:36:22.813Z,51.90
2019-01-08T22:38:52.926Z,52.00
2019-01-08T22:41:21.886Z,52.00
2019-01-08T22:43:50.877Z,52.00
2019-01-08T22:46:19.928Z,52.10
2019-01-08T22:48:48.976Z,52.10
2019-01-08T22:51:18.043Z,52.10
2019-01-08T22:53:47.085Z,52.20
2019-01-08T22:56:16.139Z,52.20
2019-01-08T22:58:45.158Z,52.20
2019-01-08T23:01:19.274Z,52.30
2019-01-08T23:03:48.327Z,52.30
2019-01-08T23:06:17.432Z,52.30
2019-01-08T23:08:47.637Z,52.50
2019-01-08T23:11:16.683Z,52.50
2019-01-08T23:13:45.748Z,52.40
2019-01-08T23:16:14.784Z,52.50
2019-01-08T23:18:43.832Z,52.50
2019-01-08T23:21:12.875Z,52.50
2019-01-08T23:23:41.924Z,52.60
2019-01-08T23:26:10.980Z,52.60
2019-01-08T23:28:40.046Z,52.70
2019-01-08T23:31:09.086Z,52.70
2019-01-08T23:33:38.139Z,52.70
2019-01-08T23:36:07.216Z,52.70
2019-01-08T23:38:36.364Z,52.70
2019-01-08T23:41:05.419Z,52.90
2019-01-08T23:43:34.446Z,52.80
2019-01-08T23:46:03.490Z,52.90
2019-01-08T23:48:32.531Z,52.90
2019-01-08T23:51:01.564Z,52.90
2019-01-08T23:53:35.357Z,52.90
2019-01-08T23:56:08.834Z,53.60
2019-01-08T23:58:39.153Z,53.00
